BBC Congo — V2EL3 — position and weather

sailwx.info

Track history (hours):
 
Tides and Currents Weather Stations Pressure Air Temp Water Temp Dewpoint Dewpoint Depression Visibility Wind Speed Wind Dir Waves Ship Positions

BBC Congo

Last reported at 2017-May-16 15:36 UTC. Time now 2017-May-22 19:21 UTC.
Position N 01°20' E 104°05'.

Length 144 m; draft 6.8 m.

Type: Cargo ship. MMSI: 305466000.

Date/timePositionNaut miles runAvg speedWind from/ knotsBaromVisibWave heightAir tempDewpointWater temp
2017-May-16 15:36N 01°20' E 104°05'112.7
2017-May-16 15:29N 01°20' E 104°04'510.4
2017-May-16 15:00N 01°24' E 104°00'4 8.4
2017-May-16 14:30N 01°25' E 103°56'2 1.7
2017-May-16 13:19N 01°26' E 103°54'0 0.0
2017-May-16 12:49N 01°26' E 103°54'0 0.0
2017-May-16 12:19N 01°26' E 103°54'0 0.0
2017-May-16 11:49N 01°26' E 103°54'0 0.0
2017-May-16 11:25N 01°26' E 103°54'0 0.0
2017-May-16 10:31N 01°26' E 103°54'0 0.0
2017-May-16 10:25N 01°26' E 103°54'0 0.0
2017-May-16 09:55N 01°26' E 103°54'0 0.0
2017-May-16 09:19N 01°26' E 103°54'0 0.0
2017-May-16 08:43N 01°26' E 103°54'0 0.0
2017-May-16 08:13N 01°26' E 103°54'0 0.0
2017-May-16 07:55N 01°26' E 103°54'0 0.0
2017-May-16 07:25N 01°26' E 103°54'0 0.0
2017-May-16 06:55N 01°26' E 103°54'0 0.0
2017-May-16 06:30N 01°26' E 103°54'0 0.9
2017-May-16 06:00N 01°26' E 103°55'2 5.0
2017-May-16 05:30N 01°24' E 103°57'5 9.4
2017-May-16 05:01N 01°23' E 104°01'5 8.1
2017-May-16 04:23N 01°20' E 104°05'2 4.4
2017-May-16 03:57N 01°19' E 104°07'1 0.2
2017-May-15 22:18N 01°19' E 104°08'0 0.0
2017-May-15 21:54N 01°19' E 104°08'0 0.0
2017-May-15 21:12N 01°19' E 104°08'0 0.0
2017-May-15 20:54N 01°19' E 104°08'0 0.1
2017-May-15 20:21N 01°19' E 104°08'0 0.0
2017-May-13 23:33N 01°19' E 104°08'0 0.0
2017-May-13 23:12N 01°19' E 104°08'0 0.0
2017-May-13 22:51N 01°19' E 104°08'0 0.0
2017-May-13 18:54N 01°19' E 104°08'1 0.0
2017-May-12 06:26N 01°19' E 104°07'4 4.0
2017-May-12 05:24N 01°16' E 104°05'513.1
2017-May-12 05:00N 01°15' E 104°00'611.0
2017-May-12 04:30N 01°14' E 103°55'2 4.9
2017-May-12 04:00N 01°16' E 103°53'0 0.1
2017-May-12 03:09N 01°16' E 103°53'0 0.2
2017-May-12 02:39N 01°16' E 103°53'0 0.0
2017-May-12 02:30N 01°16' E 103°53'0 0.3
2017-May-12 01:51N 01°16' E 103°53'0 0.0
2017-May-12 01:27N 01°16' E 103°53'0 0.1
2017-May-12 00:36N 01°16' E 103°53'0 0.1
2017-May-11 23:39N 01°16' E 103°53'0 0.2
2017-May-11 23:27N 01°16' E 103°53'0 0.0
2017-May-11 22:54N 01°16' E 103°53'0 0.0
2017-May-11 22:27N 01°16' E 103°53'0 0.0
2017-May-11 21:57N 01°16' E 103°53'0 0.1
2017-May-11 21:27N 01°16' E 103°53'0 0.0
2017-May-11 20:45N 01°16' E 103°53'0 0.0
2017-May-11 20:27N 01°16' E 103°53'0 0.0
2017-May-11 20:00N 01°16' E 103°53'0 0.0
2017-May-11 19:27N 01°16' E 103°53'0 0.0
2017-May-11 18:54N 01°16' E 103°53'0 0.0
2017-May-11 18:27N 01°16' E 103°53'0 0.0
2017-May-11 18:00N 01°16' E 103°53'0 0.1
2017-May-11 17:24N 01°16' E 103°53'0 0.0
2017-May-11 16:54N 01°16' E 103°53'0 0.2
2017-May-11 16:30N 01°16' E 103°53'0 0.0
2017-May-11 16:00N 01°16' E 103°53'0 0.0
2017-May-11 15:30N 01°16' E 103°53'0 0.1
2017-May-11 14:54N 01°16' E 103°53'0 0.1
2017-May-11 14:30N 01°16' E 103°53'0 0.0
2017-May-11 13:15N 01°16' E 103°53'1 4.2
2017-May-11 13:00N 01°15' E 103°53'2 4.6
2017-May-11 12:30N 01°13' E 103°54'511.0
2017-May-11 12:00N 01°10' E 103°49'613.0
2017-May-11 11:30N 01°06' E 103°44'713.0
2017-May-11 11:00N 01°03' E 103°38'712.7
2017-May-11 10:30N 01°06' E 103°33'7213.1
2017-May-11 05:01N 01°46' E 102°33'113.1
2017-May-11 04:59N 01°46' E 102°32'714.0
2017-May-11 04:30N 01°49' E 102°26'714.4
2017-May-11 04:00N 01°52' E 102°20'  
Track history (hours):
 
Tides and Currents Weather Stations Pressure Air Temp Water Temp Dewpoint Dewpoint Depression Visibility Wind Speed Wind Dir Waves Ship Positions

BBC Congo

Last reported at 2017-May-16 15:36 UTC. Time now 2017-May-22 19:21 UTC.
Position N 01°20' E 104°05'.

Length 144 m; draft 6.8 m.

Type: Cargo ship. MMSI: 305466000.

Date/timePositionNaut miles runAvg speedWind from/ knotsBaromVisibWave heightAir tempDewpointWater temp
2017-May-16 15:36N 01°20' E 104°05'112.7
2017-May-16 15:29N 01°20' E 104°04'510.4
2017-May-16 15:00N 01°24' E 104°00'4 8.4
2017-May-16 14:30N 01°25' E 103°56'2 1.7
2017-May-16 13:19N 01°26' E 103°54'0 0.0
2017-May-16 12:49N 01°26' E 103°54'0 0.0
2017-May-16 12:19N 01°26' E 103°54'0 0.0
2017-May-16 11:49N 01°26' E 103°54'0 0.0
2017-May-16 11:25N 01°26' E 103°54'0 0.0
2017-May-16 10:31N 01°26' E 103°54'0 0.0
2017-May-16 10:25N 01°26' E 103°54'0 0.0
2017-May-16 09:55N 01°26' E 103°54'0 0.0
2017-May-16 09:19N 01°26' E 103°54'0 0.0
2017-May-16 08:43N 01°26' E 103°54'0 0.0
2017-May-16 08:13N 01°26' E 103°54'0 0.0
2017-May-16 07:55N 01°26' E 103°54'0 0.0
2017-May-16 07:25N 01°26' E 103°54'0 0.0
2017-May-16 06:55N 01°26' E 103°54'0 0.0
2017-May-16 06:30N 01°26' E 103°54'0 0.9
2017-May-16 06:00N 01°26' E 103°55'2 5.0
2017-May-16 05:30N 01°24' E 103°57'5 9.4
2017-May-16 05:01N 01°23' E 104°01'5 8.1
2017-May-16 04:23N 01°20' E 104°05'2 4.4
2017-May-16 03:57N 01°19' E 104°07'1 0.2
2017-May-15 22:18N 01°19' E 104°08'0 0.0
2017-May-15 21:54N 01°19' E 104°08'0 0.0
2017-May-15 21:12N 01°19' E 104°08'0 0.0
2017-May-15 20:54N 01°19' E 104°08'0 0.1
2017-May-15 20:21N 01°19' E 104°08'0 0.0
2017-May-13 23:33N 01°19' E 104°08'0 0.0
2017-May-13 23:12N 01°19' E 104°08'0 0.0
2017-May-13 22:51N 01°19' E 104°08'0 0.0
2017-May-13 18:54N 01°19' E 104°08'1 0.0
2017-May-12 06:26N 01°19' E 104°07'4 4.0
2017-May-12 05:24N 01°16' E 104°05'513.1
2017-May-12 05:00N 01°15' E 104°00'611.0
2017-May-12 04:30N 01°14' E 103°55'2 4.9
2017-May-12 04:00N 01°16' E 103°53'0 0.1
2017-May-12 03:09N 01°16' E 103°53'0 0.2
2017-May-12 02:39N 01°16' E 103°53'0 0.0
2017-May-12 02:30N 01°16' E 103°53'0 0.3
2017-May-12 01:51N 01°16' E 103°53'0 0.0
2017-May-12 01:27N 01°16' E 103°53'0 0.1
2017-May-12 00:36N 01°16' E 103°53'0 0.1
2017-May-11 23:39N 01°16' E 103°53'0 0.2
2017-May-11 23:27N 01°16' E 103°53'0 0.0
2017-May-11 22:54N 01°16' E 103°53'0 0.0
2017-May-11 22:27N 01°16' E 103°53'0 0.0
2017-May-11 21:57N 01°16' E 103°53'0 0.1
2017-May-11 21:27N 01°16' E 103°53'0 0.0
2017-May-11 20:45N 01°16' E 103°53'0 0.0
2017-May-11 20:27N 01°16' E 103°53'0 0.0
2017-May-11 20:00N 01°16' E 103°53'0 0.0
2017-May-11 19:27N 01°16' E 103°53'0 0.0
2017-May-11 18:54N 01°16' E 103°53'0 0.0
2017-May-11 18:27N 01°16' E 103°53'0 0.0
2017-May-11 18:00N 01°16' E 103°53'0 0.1
2017-May-11 17:24N 01°16' E 103°53'0 0.0
2017-May-11 16:54N 01°16' E 103°53'0 0.2
2017-May-11 16:30N 01°16' E 103°53'0 0.0
2017-May-11 16:00N 01°16' E 103°53'0 0.0
2017-May-11 15:30N 01°16' E 103°53'0 0.1
2017-May-11 14:54N 01°16' E 103°53'0 0.1
2017-May-11 14:30N 01°16' E 103°53'0 0.0
2017-May-11 13:15N 01°16' E 103°53'1 4.2
2017-May-11 13:00N 01°15' E 103°53'2 4.6
2017-May-11 12:30N 01°13' E 103°54'511.0
2017-May-11 12:00N 01°10' E 103°49'613.0
2017-May-11 11:30N 01°06' E 103°44'713.0
2017-May-11 11:00N 01°03' E 103°38'712.7
2017-May-11 10:30N 01°06' E 103°33'7213.1
2017-May-11 05:01N 01°46' E 102°33'113.1
2017-May-11 04:59N 01°46' E 102°32'714.0
2017-May-11 04:30N 01°49' E 102°26'714.4
2017-May-11 04:00N 01°52' E 102°20'  

Dump ship's entire track history